createdAt,value
2019-04-07T00:14:51.478Z,48.40
2019-04-07T00:29:51.514Z,49.21
2019-04-07T00:44:51.604Z,48.90
2019-04-07T00:59:51.718Z,48.83
2019-04-07T01:14:52.146Z,48.95
2019-04-07T01:29:51.878Z,48.83
2019-04-07T01:44:51.982Z,49.35
2019-04-07T01:59:52.061Z,49.33
2019-04-07T02:14:52.228Z,49.45
2019-04-07T02:29:52.823Z,49.22
2019-04-07T02:44:53.870Z,49.25
2019-04-07T02:59:54.429Z,49.37
2019-04-07T03:14:55.874Z,49.18
2019-04-07T03:29:56.681Z,48.67
2019-04-07T03:44:56.884Z,49.25
2019-04-07T03:59:57.787Z,49.07
2019-04-07T04:14:59.699Z,49.27
2019-04-07T04:30:00.946Z,48.87
2019-04-07T04:45:02.411Z,49.55
2019-04-07T05:00:02.412Z,49.48
2019-04-07T05:15:02.473Z,49.50
2019-04-07T05:30:03.412Z,49.48
2019-04-07T05:45:04.082Z,48.55
2019-04-07T06:00:04.346Z,48.57
2019-04-07T06:15:05.282Z,49.10
2019-04-07T06:30:05.005Z,48.65
2019-04-07T06:45:05.360Z,48.57
2019-04-07T07:00:08.070Z,47.56
2019-04-07T07:15:09.087Z,47.36
2019-04-07T07:30:09.869Z,45.33
2019-04-07T07:45:12.852Z,42.98
2019-04-07T08:00:13.479Z,44.35
2019-04-07T12:11:06.569Z,34.08
2019-04-07T12:26:07.432Z,29.25
2019-04-07T12:41:15.088Z,28.22
2019-04-07T12:56:13.370Z,27.59
2019-04-07T13:11:25.464Z,27.57
2019-04-07T13:26:19.255Z,27.26
2019-04-07T13:41:20.323Z,28.69
2019-04-07T13:56:21.094Z,30.24
2019-04-07T14:11:20.981Z,31.60
2019-04-07T14:26:20.845Z,34.48
2019-04-07T20:26:32.687Z,84.17
2019-04-07T20:31:42.859Z,82.35
2019-04-07T20:34:08.699Z,77.94
2019-04-07T20:49:09.711Z,58.65
2019-04-07T21:04:10.871Z,48.42
2019-04-07T21:19:11.333Z,43.93
2019-04-07T21:34:11.018Z,42.57
2019-04-07T21:49:11.908Z,41.16
2019-04-07T22:04:12.570Z,41.16
2019-04-07T22:19:14.772Z,39.86
2019-04-07T22:34:15.307Z,40.76
2019-04-07T22:49:15.648Z,41.09
2019-04-07T23:04:16.097Z,41.50
2019-04-07T23:19:16.589Z,41.33
2019-04-07T23:34:16.926Z,41.14
2019-04-07T23:49:16.863Z,41.75
